ENSD/SDN METAR and TAF weather

Enter ICAO airport designator
Station Type Date Time Source
ENSD METAR 2020/01/18 15:50 UTC NOAA

ENSD 181550Z VRB02KT 9999 SHRA FEW008 SCT020 BKN026 04/02 Q1007 RMK WIND 1138FT 29006KT


Station Type Date Time Source
ENSD Decoded METAR 2020/01/18 15:50 UTC NOAA

Sandane / Anda, Norway (ENSD) 61-50N 006-07E 60M
Jan 18, 2020 - 10:50 AM EST / 2020.01.18 1550 UTC
Wind: Variable at 2 MPH (2 KT):0
Visibility: greater than 7 mile(s):0
Sky conditions: mostly cloudy
Weather: rain showers
Temperature: 39 F (4 C)
Dew Point: 35 F (2 C)
Relative Humidity: 86%
Pressure (altimeter): 29.74 in. Hg (1007 hPa)
ob: ENSD 181550Z VRB02KT 9999 SHRA FEW008 SCT020 BKN026 04/02 Q1007 RMK WIND 1138FT 29006KT
cycle: 16

Station Type Date Time Source
ENSD TAF UTC NOAA

Error!

Example: see airport list